createdAt,value
2018-11-26T00:00:43.419Z,-86
2018-11-26T00:03:13.384Z,-87
2018-11-26T00:05:55.762Z,-87
2018-11-26T00:08:37.338Z,-87
2018-11-26T00:11:25.261Z,-87
2018-11-26T00:14:06.909Z,-87
2018-11-26T00:16:36.824Z,-86
2018-11-26T00:19:18.979Z,-87
2018-11-26T00:22:00.797Z,-87
2018-11-26T00:24:49.402Z,-86
2018-11-26T00:27:19.327Z,-87
2018-11-26T00:29:49.270Z,-86
2018-11-26T00:32:31.463Z,-87
2018-11-26T00:35:01.408Z,-87
2018-11-26T00:37:43.226Z,-87
2018-11-26T00:40:25.189Z,-86
2018-11-26T00:43:06.933Z,-87
2018-11-26T00:45:49.247Z,-86
2018-11-26T00:48:31.953Z,-87
2018-11-26T00:51:20.810Z,-87
2018-11-26T00:54:03.249Z,-88
2018-11-26T00:56:33.364Z,-88
2018-11-26T00:59:15.592Z,-87
2018-11-26T01:01:57.318Z,-88
2018-11-26T01:04:39.664Z,-88
2018-11-26T01:07:29.854Z,-88
2018-11-26T01:09:59.820Z,-87
2018-11-26T01:12:42.381Z,-87
2018-11-26T01:15:23.956Z,-86
2018-11-26T01:18:05.781Z,-88
2018-11-26T01:20:35.769Z,-88
2018-11-26T01:23:17.995Z,-88
2018-11-26T01:25:47.923Z,-88
2018-11-26T01:28:30.137Z,-88
2018-11-26T01:31:11.923Z,-87
2018-11-26T01:33:54.018Z,-85
2018-11-26T01:36:23.978Z,-87
2018-11-26T01:39:08.030Z,-87
2018-11-26T01:41:50.100Z,-88
2018-11-26T01:44:20.016Z,-88
2018-11-26T01:47:03.069Z,-88
2018-11-26T01:49:45.091Z,-88
2018-11-26T01:52:16.122Z,-87
2018-11-26T01:54:58.710Z,-88
2018-11-26T01:57:40.610Z,-88
2018-11-26T02:00:24.660Z,-88
2018-11-26T02:03:06.847Z,-87
2018-11-26T02:05:48.479Z,-86
2018-11-26T02:08:30.193Z,-87
2018-11-26T02:11:11.907Z,-89
2018-11-26T02:13:54.425Z,-88
2018-11-26T02:16:36.389Z,-88
2018-11-26T02:19:06.726Z,-86
2018-11-26T02:21:36.693Z,-88
2018-11-26T02:24:18.628Z,-88
2018-11-26T02:27:01.446Z,-89
2018-11-26T02:29:43.301Z,-88
2018-11-26T02:32:25.104Z,-88
2018-11-26T02:35:07.420Z,-87
2018-11-26T02:37:50.375Z,-87
2018-11-26T02:40:38.831Z,-87
2018-11-26T02:43:08.742Z,-87
2018-11-26T02:45:38.713Z,-88
2018-11-26T02:48:20.482Z,-88
2018-11-26T02:51:01.904Z,-87
2018-11-26T02:53:31.799Z,-87
2018-11-26T02:56:01.709Z,-88
2018-11-26T02:58:43.828Z,-87
2018-11-26T03:01:25.661Z,-87
2018-11-26T03:04:08.222Z,-88
2018-11-26T03:06:38.167Z,-87
2018-11-26T03:09:21.472Z,-88
2018-11-26T03:11:51.409Z,-87
2018-11-26T03:14:33.388Z,-88
2018-11-26T03:17:03.284Z,-87
2018-11-26T03:19:44.965Z,-87
2018-11-26T03:22:26.841Z,-86
2018-11-26T03:25:09.419Z,-88
2018-11-26T03:27:51.114Z,-87
2018-11-26T03:30:33.007Z,-87
2018-11-26T03:33:02.918Z,-87
2018-11-26T03:35:46.070Z,-87
2018-11-26T03:38:22.084Z,-87
2018-11-26T03:40:52.024Z,-87
2018-11-26T03:43:34.018Z,-86
2018-11-26T03:46:22.770Z,-88
2018-11-26T03:49:04.124Z,-87
2018-11-26T03:51:45.732Z,-87
2018-11-26T03:54:37.686Z,-88
2018-11-26T03:57:20.035Z,-88
2018-11-26T04:00:02.138Z,-87
2018-11-26T04:02:44.600Z,-87
2018-11-26T04:05:26.777Z,-87
2018-11-26T04:08:09.534Z,-87
2018-11-26T04:10:57.475Z,-89
2018-11-26T04:13:27.371Z,-88
2018-11-26T04:15:57.320Z,-88
2018-11-26T04:18:39.667Z,-87
2018-11-26T04:21:27.625Z,-88
2018-11-26T04:24:09.376Z,-88
2018-11-26T04:26:39.286Z,-88
2018-11-26T04:29:09.219Z,-87
2018-11-26T04:31:39.188Z,-88
2018-11-26T04:34:09.156Z,-88
2018-11-26T04:36:50.901Z,-88
2018-11-26T04:39:33.312Z,-85
2018-11-26T04:42:03.231Z,-87
2018-11-26T04:44:33.179Z,-87
2018-11-26T04:47:14.941Z,-88
2018-11-26T04:49:56.641Z,-87
2018-11-26T04:52:39.182Z,-86
2018-11-26T04:55:21.150Z,-88
2018-11-26T04:58:02.945Z,-87
2018-11-26T05:00:44.576Z,-87
2018-11-26T05:03:27.088Z,-87
2018-11-26T05:06:09.695Z,-87
2018-11-26T05:08:51.821Z,-87
2018-11-26T05:11:34.409Z,-87
2018-11-26T05:14:16.474Z,-87
2018-11-26T05:16:59.252Z,-85
2018-11-26T05:19:41.736Z,-87
2018-11-26T05:22:23.431Z,-87
2018-11-26T05:25:13.413Z,-87
2018-11-26T05:27:55.732Z,-85
2018-11-26T05:30:37.397Z,-87
2018-11-26T05:33:25.536Z,-87
2018-11-26T05:36:07.994Z,-87
2018-11-26T05:38:37.955Z,-85
2018-11-26T05:41:07.878Z,-88
2018-11-26T05:43:37.781Z,-88
2018-11-26T05:46:19.549Z,-88
2018-11-26T05:49:08.278Z,-88
2018-11-26T05:51:56.033Z,-89
2018-11-26T05:54:29.792Z,-86
2018-11-26T05:57:12.267Z,-87
2018-11-26T05:59:42.210Z,-88
2018-11-26T06:02:17.948Z,-88
2018-11-26T06:04:47.883Z,-87
2018-11-26T06:07:29.470Z,-88
2018-11-26T06:09:59.423Z,-88
2018-11-26T06:12:42.072Z,-88
2018-11-26T06:15:24.132Z,-87
2018-11-26T06:18:06.832Z,-87
2018-11-26T06:20:48.461Z,-88
2018-11-26T06:23:30.049Z,-87
2018-11-26T06:26:11.473Z,-88
2018-11-26T06:28:53.367Z,-88
2018-11-26T06:31:35.508Z,-87
2018-11-26T06:34:17.168Z,-85
2018-11-26T06:36:47.109Z,-88
2018-11-26T06:39:29.379Z,-87
2018-11-26T06:42:11.104Z,-88
2018-11-26T06:44:59.225Z,-88
2018-11-26T06:47:41.994Z,-88
2018-11-26T06:50:23.846Z,-88
2018-11-26T06:53:05.493Z,-85
2018-11-26T06:55:35.539Z,-84
2018-11-26T06:58:05.683Z,-85
2018-11-26T07:00:48.588Z,-87
2018-11-26T07:03:30.192Z,-87
2018-11-26T07:06:11.938Z,-82
2018-11-26T07:08:53.528Z,-86
2018-11-26T07:11:23.465Z,-84
2018-11-26T07:14:06.471Z,-84
2018-11-26T07:16:37.719Z,-84
2018-11-26T07:19:20.341Z,-84
2018-11-26T07:21:50.284Z,-84
2018-11-26T07:24:20.242Z,-82
2018-11-26T07:27:02.096Z,-84
2018-11-26T07:29:32.009Z,-84
2018-11-26T07:32:13.653Z,-84
2018-11-26T07:35:03.888Z,-84
2018-11-26T07:37:45.475Z,-86
2018-11-26T07:40:26.655Z,-85
2018-11-26T07:43:08.919Z,-84
2018-11-26T07:45:50.702Z,-85
2018-11-26T07:48:32.737Z,-84
2018-11-26T07:51:31.177Z,-83
2018-11-26T07:54:01.553Z,-83
2018-11-26T07:56:44.097Z,-83
2018-11-26T07:59:14.050Z,-83
2018-11-26T08:02:03.606Z,-85
2018-11-26T08:04:45.524Z,-86
2018-11-26T08:07:33.413Z,-84
2018-11-26T08:13:27.395Z,-81
2018-11-26T08:16:10.087Z,-85
2018-11-26T08:18:59.924Z,-85
2018-11-26T08:21:41.649Z,-86
2018-11-26T08:24:23.333Z,-86
2018-11-26T08:27:11.071Z,-83
2018-11-26T08:29:52.840Z,-86
2018-11-26T08:32:34.835Z,-84
2018-11-26T08:35:04.815Z,-83
2018-11-26T08:37:35.158Z,-85
2018-11-26T08:40:10.138Z,-86
2018-11-26T08:42:45.788Z,-81
2018-11-26T08:45:20.828Z,-85
2018-11-26T08:47:58.233Z,-86
2018-11-26T08:50:28.445Z,-82
2018-11-26T08:52:58.376Z,-85
2018-11-26T08:55:28.327Z,-84
2018-11-26T08:57:58.373Z,-84
2018-11-26T09:00:28.359Z,-83
2018-11-26T09:08:47.301Z,-86
2018-11-26T09:11:29.242Z,-85
2018-11-26T09:14:10.807Z,-86
2018-11-26T09:16:52.372Z,-84
2018-11-26T09:19:22.331Z,-84
2018-11-26T09:22:04.206Z,-89
2018-11-26T09:24:47.111Z,-87
2018-11-26T09:27:28.807Z,-86
2018-11-26T09:29:58.751Z,-86
2018-11-26T09:32:40.680Z,-84
2018-11-26T09:35:22.446Z,-86
2018-11-26T09:38:04.222Z,-88
2018-11-26T09:40:34.089Z,-82
2018-11-26T09:43:16.336Z,-86
2018-11-26T09:45:58.021Z,-85
2018-11-26T09:48:39.805Z,-85
2018-11-26T09:51:14.135Z,-84
2018-11-26T09:53:39.773Z,-87
2018-11-26T09:56:09.724Z,-85
2018-11-26T09:58:39.796Z,-85
2018-11-26T10:01:21.288Z,-85
2018-11-26T10:04:04.009Z,-84
2018-11-26T10:06:46.039Z,-85
2018-11-26T10:09:16.032Z,-85
2018-11-26T10:11:58.178Z,-85
2018-11-26T10:14:39.974Z,-84
2018-11-26T10:17:21.781Z,-84
2018-11-26T10:19:51.688Z,-84
2018-11-26T10:22:21.733Z,-84
2018-11-26T10:25:06.017Z,-83
2018-11-26T10:27:34.512Z,-84
2018-11-26T10:30:05.477Z,-84
2018-11-26T10:35:47.514Z,-84
2018-11-26T10:38:29.703Z,-83
2018-11-26T10:40:59.842Z,-86
2018-11-26T10:43:41.924Z,-84
2018-11-26T10:46:23.893Z,-85
2018-11-26T10:48:53.924Z,-85
2018-11-26T10:51:35.963Z,-84
2018-11-26T10:54:06.007Z,-85
2018-11-26T10:56:36.047Z,-86
2018-11-26T10:59:06.095Z,-84
2018-11-26T11:01:52.681Z,-84
2018-11-26T11:04:47.584Z,-84
2018-11-26T11:07:23.254Z,-88
2018-11-26T11:10:06.254Z,-85
2018-11-26T11:12:48.730Z,-86
2018-11-26T11:15:18.720Z,-87
2018-11-26T11:18:01.043Z,-85
2018-11-26T11:20:31.031Z,-85
2018-11-26T11:26:13.045Z,-86
2018-11-26T11:29:04.748Z,-84
2018-11-26T11:31:46.430Z,-84
2018-11-26T11:34:16.465Z,-84
2018-11-26T11:36:58.783Z,-83
2018-11-26T11:39:40.582Z,-85
2018-11-26T11:42:10.885Z,-84
2018-11-26T11:44:59.618Z,-83
2018-11-26T11:47:29.654Z,-84
2018-11-26T11:50:12.262Z,-83
2018-11-26T11:52:54.287Z,-84
2018-11-26T11:55:36.507Z,-85
2018-11-26T11:58:19.204Z,-85
2018-11-26T12:01:00.713Z,-86
2018-11-26T12:03:42.419Z,-84
2018-11-26T12:06:24.311Z,-86
2018-11-26T12:09:08.321Z,-85
2018-11-26T12:11:49.961Z,-84
2018-11-26T12:14:31.833Z,-84
2018-11-26T12:17:20.761Z,-85
2018-11-26T12:19:50.830Z,-85
2018-11-26T12:22:20.854Z,-84
2018-11-26T12:25:12.899Z,-82
2018-11-26T12:28:05.377Z,-84
2018-11-26T12:30:40.236Z,-84
2018-11-26T12:33:28.801Z,-84
2018-11-26T12:39:18.580Z,-83
2018-11-26T12:42:07.076Z,-83
2018-11-26T12:44:49.084Z,-84
2018-11-26T12:47:30.945Z,-85
2018-11-26T12:50:12.687Z,-83
2018-11-26T12:52:56.561Z,-83
2018-11-26T12:55:44.811Z,-84
2018-11-26T12:58:26.712Z,-82
2018-11-26T13:00:56.709Z,-86
2018-11-26T13:03:50.155Z,-84
2018-11-26T13:09:40.683Z,-85
2018-11-26T13:12:10.733Z,-84
2018-11-26T13:18:01.976Z,-85
2018-11-26T13:23:42.263Z,-84
2018-11-26T13:26:24.758Z,-83
2018-11-26T13:29:07.503Z,-83
2018-11-26T13:31:49.880Z,-85
2018-11-26T13:34:31.672Z,-85
2018-11-26T13:37:13.751Z,-84
2018-11-26T13:39:55.290Z,-83
2018-11-26T13:42:37.059Z,-83
2018-11-26T13:48:19.745Z,-83
2018-11-26T13:53:49.209Z,-84
2018-11-26T13:56:31.002Z,-83
2018-11-26T13:59:00.974Z,-85
2018-11-26T14:01:42.830Z,-85
2018-11-26T14:04:24.749Z,-84
2018-11-26T14:06:54.765Z,-84
2018-11-26T14:09:37.259Z,-84
2018-11-26T14:12:19.999Z,-83
2018-11-26T14:15:01.980Z,-85
2018-11-26T14:17:44.591Z,-84
2018-11-26T14:20:26.470Z,-85
2018-11-26T14:23:08.341Z,-84
2018-11-26T14:25:50.043Z,-84
2018-11-26T14:28:31.756Z,-86
2018-11-26T14:31:01.783Z,-83
2018-11-26T14:33:43.530Z,-83
2018-11-26T14:36:25.768Z,-84
2018-11-26T14:38:55.739Z,-84
2018-11-26T14:41:38.993Z,-83
2018-11-26T14:44:20.959Z,-85
2018-11-26T14:47:03.146Z,-83
2018-11-26T14:49:44.579Z,-84
2018-11-26T14:52:33.019Z,-84
2018-11-26T14:55:17.095Z,-84
2018-11-26T14:57:59.079Z,-85
2018-11-26T15:00:40.662Z,-84
2018-11-26T15:03:22.273Z,-85
2018-11-26T15:06:04.003Z,-84
2018-11-26T15:08:46.267Z,-86
2018-11-26T15:11:16.332Z,-85
2018-11-26T15:13:46.361Z,-85
2018-11-26T15:16:28.633Z,-85
2018-11-26T15:18:58.616Z,-86
2018-11-26T15:21:40.576Z,-85
2018-11-26T15:24:22.039Z,-84
2018-11-26T15:26:53.332Z,-85
2018-11-26T15:29:35.257Z,-86
2018-11-26T15:32:17.559Z,-85
2018-11-26T15:34:59.223Z,-85
2018-11-26T15:37:41.067Z,-84
2018-11-26T15:40:22.983Z,-85
2018-11-26T15:42:52.983Z,-85
2018-11-26T15:45:34.902Z,-85
2018-11-26T15:48:16.811Z,-84
2018-11-26T15:50:46.760Z,-84
2018-11-26T15:53:16.768Z,-85
2018-11-26T15:55:58.533Z,-85
2018-11-26T15:58:40.077Z,-85
2018-11-26T16:01:10.119Z,-86
2018-11-26T16:03:40.342Z,-84
2018-11-26T16:06:23.538Z,-86
2018-11-26T16:09:07.625Z,-85
2018-11-26T16:11:49.389Z,-84
2018-11-26T16:14:31.043Z,-85
2018-11-26T16:17:12.918Z,-85
2018-11-26T16:19:55.159Z,-85
2018-11-26T16:22:36.633Z,-84
2018-11-26T16:25:08.624Z,-86
2018-11-26T16:27:38.697Z,-84
2018-11-26T16:30:21.316Z,-86
2018-11-26T16:33:03.775Z,-85
2018-11-26T16:35:46.542Z,-85
2018-11-26T16:38:28.611Z,-85
2018-11-26T16:41:10.861Z,-84
2018-11-26T16:43:53.479Z,-84
2018-11-26T16:46:36.058Z,-85
2018-11-26T16:49:06.353Z,-83
2018-11-26T16:51:54.022Z,-83
2018-11-26T16:54:35.634Z,-85
2018-11-26T16:57:17.551Z,-85
2018-11-26T16:59:59.359Z,-84
2018-11-26T17:02:29.550Z,-84
2018-11-26T17:04:59.586Z,-84
2018-11-26T17:07:29.590Z,-84
2018-11-26T17:10:11.930Z,-84
2018-11-26T17:12:53.971Z,-83
2018-11-26T17:15:36.290Z,-85
2018-11-26T17:18:07.563Z,-84
2018-11-26T17:20:49.343Z,-84
2018-11-26T17:23:31.586Z,-85
2018-11-26T17:26:13.805Z,-85
2018-11-26T17:28:56.501Z,-85
2018-11-26T17:31:38.384Z,-84
2018-11-26T17:34:20.216Z,-85
2018-11-26T17:37:02.485Z,-83
2018-11-26T17:39:44.924Z,-83
2018-11-26T17:42:26.593Z,-85
2018-11-26T17:44:56.723Z,-86
2018-11-26T17:47:39.163Z,-85
2018-11-26T17:53:13.889Z,-86
2018-11-26T17:55:56.624Z,-84
2018-11-26T17:58:28.391Z,-86
2018-11-26T18:01:11.866Z,-84
2018-11-26T18:03:54.806Z,-87
2018-11-26T18:06:37.078Z,-85
2018-11-26T18:09:11.715Z,-86
2018-11-26T18:11:41.743Z,-84
2018-11-26T18:14:25.179Z,-86
2018-11-26T18:17:07.996Z,-88
2018-11-26T18:19:38.009Z,-85
2018-11-26T18:22:08.251Z,-87
2018-11-26T18:24:49.952Z,-85
2018-11-26T18:27:20.042Z,-86
2018-11-26T18:30:01.887Z,-84
2018-11-26T18:32:43.902Z,-82
2018-11-26T18:35:25.877Z,-83
2018-11-26T18:38:07.846Z,-84
2018-11-26T18:40:51.119Z,-85
2018-11-26T18:43:21.286Z,-85
2018-11-26T18:46:03.514Z,-87
2018-11-26T18:48:45.277Z,-85
2018-11-26T18:51:27.619Z,-85
2018-11-26T18:54:10.390Z,-84
2018-11-26T18:56:40.579Z,-84
2018-11-26T18:59:23.005Z,-84
2018-11-26T19:01:53.103Z,-87
2018-11-26T19:04:23.186Z,-86
2018-11-26T19:06:53.249Z,-86
2018-11-26T19:09:35.104Z,-85
2018-11-26T19:12:17.455Z,-85
2018-11-26T19:14:59.938Z,-87
2018-11-26T19:17:42.704Z,-86
2018-11-26T19:20:13.699Z,-86
2018-11-26T19:22:55.920Z,-85
2018-11-26T19:25:26.037Z,-86
2018-11-26T19:28:07.987Z,-86
2018-11-26T19:30:37.995Z,-87
2018-11-26T19:33:19.481Z,-85
2018-11-26T19:36:01.479Z,-86
2018-11-26T19:38:43.442Z,-85
2018-11-26T19:41:25.762Z,-85
2018-11-26T19:44:07.814Z,-85
2018-11-26T19:46:37.872Z,-83
2018-11-26T19:49:07.927Z,-81
2018-11-26T19:51:50.154Z,-87
2018-11-26T19:54:33.243Z,-85
2018-11-26T19:57:15.544Z,-86
2018-11-26T19:59:57.596Z,-85
2018-11-26T20:02:40.168Z,-87
2018-11-26T20:05:42.005Z,-85
2018-11-26T20:10:54.462Z,-84
2018-11-26T20:13:24.432Z,-85
2018-11-26T20:15:55.111Z,-87
2018-11-26T20:18:28.477Z,-85
2018-11-26T20:20:55.075Z,-84
2018-11-26T20:23:25.072Z,-86
2018-11-26T20:25:54.961Z,-86
2018-11-26T20:28:25.150Z,-87
2018-11-26T20:30:55.140Z,-88
2018-11-26T20:33:25.075Z,-88
2018-11-26T20:35:55.019Z,-87
2018-11-26T20:38:25.022Z,-85
2018-11-26T20:40:55.110Z,-88
2018-11-26T20:43:25.081Z,-86
2018-11-26T20:45:54.963Z,-87
2018-11-26T20:48:30.316Z,-84
2018-11-26T20:50:55.094Z,-84
2018-11-26T20:53:37.590Z,-84
2018-11-26T20:56:20.381Z,-85
2018-11-26T20:58:50.520Z,-84
2018-11-26T21:01:32.692Z,-84
2018-11-26T21:04:15.301Z,-84
2018-11-26T21:06:57.768Z,-83
2018-11-26T21:09:39.689Z,-84
2018-11-26T21:12:22.006Z,-84
2018-11-26T21:15:04.352Z,-84
2018-11-26T21:17:34.507Z,-83
2018-11-26T21:20:06.911Z,-84
2018-11-26T21:22:49.851Z,-84
2018-11-26T21:25:32.183Z,-83
2018-11-26T21:28:13.981Z,-84
2018-11-26T21:30:43.994Z,-84
2018-11-26T21:33:26.610Z,-84
2018-11-26T21:36:07.937Z,-83
2018-11-26T21:38:49.667Z,-83
2018-11-26T21:41:37.266Z,-83
2018-11-26T21:44:20.004Z,-84
2018-11-26T21:47:02.455Z,-84
2018-11-26T21:49:44.534Z,-84
2018-11-26T21:55:10.055Z,-83
2018-11-26T21:57:52.711Z,-84
2018-11-26T22:00:34.192Z,-84
2018-11-26T22:03:10.420Z,-84
2018-11-26T22:05:52.711Z,-83
2018-11-26T22:08:35.105Z,-85
2018-11-26T22:11:16.417Z,-83
2018-11-26T22:14:04.785Z,-84
2018-11-26T22:16:46.804Z,-83
2018-11-26T22:19:34.742Z,-83
2018-11-26T22:22:16.157Z,-83
2018-11-26T22:24:58.061Z,-84
2018-11-26T22:27:56.201Z,-84
2018-11-26T22:30:37.761Z,-83
2018-11-26T22:33:07.526Z,-83
2018-11-26T22:35:49.176Z,-84
2018-11-26T22:38:30.805Z,-84
2018-11-26T22:41:12.781Z,-84
2018-11-26T22:43:54.799Z,-84
2018-11-26T22:46:24.748Z,-84
2018-11-26T22:49:07.006Z,-84
2018-11-26T22:51:36.991Z,-83
2018-11-26T22:54:25.615Z,-83
2018-11-26T22:57:07.088Z,-83
2018-11-26T22:59:37.030Z,-83
2018-11-26T23:02:18.314Z,-83
2018-11-26T23:04:48.005Z,-83
2018-11-26T23:07:37.170Z,-84
2018-11-26T23:10:09.389Z,-83
2018-11-26T23:12:58.001Z,-83
2018-11-26T23:15:28.001Z,-82
2018-11-26T23:18:10.227Z,-83
2018-11-26T23:20:40.227Z,-83
2018-11-26T23:23:10.193Z,-83
2018-11-26T23:25:52.651Z,-82
2018-11-26T23:28:34.287Z,-83
2018-11-26T23:31:16.272Z,-82
2018-11-26T23:33:58.538Z,-83
2018-11-26T23:36:46.701Z,-82
2018-11-26T23:39:28.498Z,-83
2018-11-26T23:42:10.098Z,-83
2018-11-26T23:44:58.288Z,-82
2018-11-26T23:47:39.861Z,-82
2018-11-26T23:50:22.187Z,-83
2018-11-26T23:52:52.108Z,-82
2018-11-26T23:55:33.468Z,-83
2018-11-26T23:58:03.137Z,-82
